sensor_id;sensor_type;location;lat;lon;timestamp;pressure;altitude;pressure_sealevel;temperature;humidity
73338;BME280;61575;49.908;35.556;2023-03-02T00:01:59;99477.81;;;-2.53;74.80
73338;BME280;61575;49.908;35.556;2023-03-02T00:05:04;99467.13;;;-2.50;74.78
73338;BME280;61575;49.908;35.556;2023-03-02T00:08:07;99462.63;;;-2.48;74.83
73338;BME280;61575;49.908;35.556;2023-03-02T00:11:10;99457.38;;;-2.48;75.06
73338;BME280;61575;49.908;35.556;2023-03-02T00:14:12;99455.00;;;-2.53;75.38
73338;BME280;61575;49.908;35.556;2023-03-02T00:17:14;99449.56;;;-2.50;75.07
73338;BME280;61575;49.908;35.556;2023-03-02T00:20:16;99460.84;;;-2.48;75.07
73338;BME280;61575;49.908;35.556;2023-03-02T00:23:18;99461.03;;;-2.51;75.43
73338;BME280;61575;49.908;35.556;2023-03-02T00:26:20;99454.16;;;-2.53;75.53
73338;BME280;61575;49.908;35.556;2023-03-02T00:29:22;99452.38;;;-2.53;75.28
73338;BME280;61575;49.908;35.556;2023-03-02T00:32:24;99445.59;;;-2.57;75.13
73338;BME280;61575;49.908;35.556;2023-03-02T00:35:26;99441.94;;;-2.54;74.96
73338;BME280;61575;49.908;35.556;2023-03-02T00:38:28;99435.19;;;-2.58;74.54
73338;BME280;61575;49.908;35.556;2023-03-02T00:41:30;99436.59;;;-2.53;74.52
73338;BME280;61575;49.908;35.556;2023-03-02T00:44:35;99431.63;;;-2.57;74.21
73338;BME280;61575;49.908;35.556;2023-03-02T00:47:37;99426.19;;;-2.54;74.20
73338;BME280;61575;49.908;35.556;2023-03-02T00:50:40;99421.69;;;-2.52;73.67
73338;BME280;61575;49.908;35.556;2023-03-02T00:53:42;99422.97;;;-2.59;74.01
73338;BME280;61575;49.908;35.556;2023-03-02T00:56:45;99414.16;;;-2.58;73.83
73338;BME280;61575;49.908;35.556;2023-03-02T00:59:47;99410.00;;;-2.62;73.87
73338;BME280;61575;49.908;35.556;2023-03-02T01:03:15;99415.88;;;-2.73;74.20
73338;BME280;61575;49.908;35.556;2023-03-02T01:06:19;99414.56;;;-2.80;74.48
73338;BME280;61575;49.908;35.556;2023-03-02T01:09:21;99413.88;;;-2.84;74.84
73338;BME280;61575;49.908;35.556;2023-03-02T01:12:23;99412.28;;;-2.86;74.67
73338;BME280;61575;49.908;35.556;2023-03-02T01:15:27;99415.16;;;-2.91;74.48
73338;BME280;61575;49.908;35.556;2023-03-02T01:18:28;99409.84;;;-3.05;75.33
73338;BME280;61575;49.908;35.556;2023-03-02T01:21:35;99417.81;;;-3.07;75.09
73338;BME280;61575;49.908;35.556;2023-03-02T01:24:37;99414.69;;;-3.13;75.14
73338;BME280;61575;49.908;35.556;2023-03-02T01:27:40;99420.97;;;-3.16;75.26
73338;BME280;61575;49.908;35.556;2023-03-02T01:30:41;99415.97;;;-3.20;75.20
73338;BME280;61575;49.908;35.556;2023-03-02T01:33:51;99408.59;;;-3.29;75.24
73338;BME280;61575;49.908;35.556;2023-03-02T01:36:53;99409.63;;;-3.32;75.23
73338;BME280;61575;49.908;35.556;2023-03-02T01:39:55;99405.22;;;-3.31;74.95
73338;BME280;61575;49.908;35.556;2023-03-02T01:42:59;99402.50;;;-3.30;75.00
73338;BME280;61575;49.908;35.556;2023-03-02T01:46:14;99408.34;;;-3.41;74.92
73338;BME280;61575;49.908;35.556;2023-03-02T01:49:24;99406.66;;;-3.42;75.51
73338;BME280;61575;49.908;35.556;2023-03-02T01:52:32;99403.78;;;-3.37;75.24
73338;BME280;61575;49.908;35.556;2023-03-02T01:55:36;99393.38;;;-3.39;75.63
73338;BME280;61575;49.908;35.556;2023-03-02T01:58:39;99392.09;;;-3.31;75.56
73338;BME280;61575;49.908;35.556;2023-03-02T02:01:44;99397.34;;;-3.47;76.10
73338;BME280;61575;49.908;35.556;2023-03-02T02:04:48;99397.69;;;-3.38;75.99
73338;BME280;61575;49.908;35.556;2023-03-02T02:07:51;99397.00;;;-3.41;76.42
73338;BME280;61575;49.908;35.556;2023-03-02T02:10:53;99391.84;;;-3.43;76.32
73338;BME280;61575;49.908;35.556;2023-03-02T02:13:56;99401.84;;;-3.49;76.88
73338;BME280;61575;49.908;35.556;2023-03-02T02:16:59;99410.22;;;-3.43;76.10
73338;BME280;61575;49.908;35.556;2023-03-02T02:23:39;99414.53;;;-3.42;76.41
73338;BME280;61575;49.908;35.556;2023-03-02T02:26:47;99415.63;;;-3.46;76.11
73338;BME280;61575;49.908;35.556;2023-03-02T02:29:54;99410.38;;;-3.46;76.22
73338;BME280;61575;49.908;35.556;2023-03-02T02:32:59;99401.25;;;-3.39;76.21
73338;BME280;61575;49.908;35.556;2023-03-02T02:36:06;99402.59;;;-3.47;76.19
73338;BME280;61575;49.908;35.556;2023-03-02T02:39:24;99397.78;;;-3.39;76.01
73338;BME280;61575;49.908;35.556;2023-03-02T02:42:33;99391.84;;;-3.43;76.37
73338;BME280;61575;49.908;35.556;2023-03-02T02:45:36;99393.44;;;-3.40;75.95
73338;BME280;61575;49.908;35.556;2023-03-02T02:48:38;99387.53;;;-3.44;76.40
73338;BME280;61575;49.908;35.556;2023-03-02T02:51:40;99379.72;;;-3.45;76.19
73338;BME280;61575;49.908;35.556;2023-03-02T02:54:45;99377.09;;;-3.45;76.77
73338;BME280;61575;49.908;35.556;2023-03-02T02:57:49;99373.38;;;-3.41;76.65
73338;BME280;61575;49.908;35.556;2023-03-02T03:00:54;99372.19;;;-3.35;76.45
73338;BME280;61575;49.908;35.556;2023-03-02T03:04:00;99361.78;;;-3.37;76.45
73338;BME280;61575;49.908;35.556;2023-03-02T03:07:04;99354.84;;;-3.38;76.95
73338;BME280;61575;49.908;35.556;2023-03-02T03:13:15;99354.66;;;-3.35;77.18
73338;BME280;61575;49.908;35.556;2023-03-02T03:16:18;99352.78;;;-3.33;76.86
73338;BME280;61575;49.908;35.556;2023-03-02T03:19:29;99347.53;;;-3.33;77.52
73338;BME280;61575;49.908;35.556;2023-03-02T03:22:36;99351.00;;;-3.32;77.72
73338;BME280;61575;49.908;35.556;2023-03-02T03:25:41;99354.22;;;-3.27;77.75
73338;BME280;61575;49.908;35.556;2023-03-02T03:28:43;99354.47;;;-3.32;77.85
73338;BME280;61575;49.908;35.556;2023-03-02T03:31:45;99342.78;;;-3.26;78.08
73338;BME280;61575;49.908;35.556;2023-03-02T03:34:48;99330.59;;;-3.27;77.88
73338;BME280;61575;49.908;35.556;2023-03-02T03:37:58;99337.00;;;-3.17;77.97
73338;BME280;61575;49.908;35.556;2023-03-02T03:41:00;99343.03;;;-3.15;78.06
73338;BME280;61575;49.908;35.556;2023-03-02T03:44:03;99338.78;;;-3.18;78.50
73338;BME280;61575;49.908;35.556;2023-03-02T03:47:08;99347.59;;;-3.19;78.98
73338;BME280;61575;49.908;35.556;2023-03-02T03:50:10;99349.22;;;-3.16;79.27
73338;BME280;61575;49.908;35.556;2023-03-02T03:53:13;99346.94;;;-3.22;79.80
73338;BME280;61575;49.908;35.556;2023-03-02T03:56:15;99334.78;;;-3.09;79.48
73338;BME280;61575;49.908;35.556;2023-03-02T03:59:21;99340.13;;;-3.11;79.17
73338;BME280;61575;49.908;35.556;2023-03-02T04:02:28;99339.50;;;-3.00;79.62
73338;BME280;61575;49.908;35.556;2023-03-02T04:05:30;99347.22;;;-2.97;79.59
73338;BME280;61575;49.908;35.556;2023-03-02T04:08:34;99343.66;;;-2.96;79.32
73338;BME280;61575;49.908;35.556;2023-03-02T04:11:39;99337.72;;;-2.99;79.95
73338;BME280;61575;49.908;35.556;2023-03-02T04:14:42;99338.97;;;-2.91;79.53
73338;BME280;61575;49.908;35.556;2023-03-02T04:17:46;99329.50;;;-2.93;80.23
73338;BME280;61575;49.908;35.556;2023-03-02T04:20:53;99333.28;;;-2.83;79.93
73338;BME280;61575;49.908;35.556;2023-03-02T04:23:57;99337.22;;;-2.76;79.74
73338;BME280;61575;49.908;35.556;2023-03-02T04:26:59;99329.41;;;-2.92;80.28
73338;BME280;61575;49.908;35.556;2023-03-02T04:30:03;99338.25;;;-2.79;79.76
73338;BME280;61575;49.908;35.556;2023-03-02T04:33:05;99337.53;;;-2.66;79.75
73338;BME280;61575;49.908;35.556;2023-03-02T04:36:09;99336.00;;;-2.70;79.99
73338;BME280;61575;49.908;35.556;2023-03-02T04:39:14;99344.28;;;-2.62;79.52
73338;BME280;61575;49.908;35.556;2023-03-02T04:42:19;99348.53;;;-2.60;79.71
73338;BME280;61575;49.908;35.556;2023-03-02T04:45:22;99349.75;;;-2.51;79.51
73338;BME280;61575;49.908;35.556;2023-03-02T04:48:27;99360.00;;;-2.47;79.17
73338;BME280;61575;49.908;35.556;2023-03-02T04:51:32;99353.72;;;-2.44;79.17
73338;BME280;61575;49.908;35.556;2023-03-02T04:54:34;99349.94;;;-2.40;79.43
73338;BME280;61575;49.908;35.556;2023-03-02T04:57:36;99349.59;;;-2.34;79.71
73338;BME280;61575;49.908;35.556;2023-03-02T05:00:39;99344.50;;;-2.23;78.90
73338;BME280;61575;49.908;35.556;2023-03-02T05:03:41;99350.72;;;-2.24;79.28
73338;BME280;61575;49.908;35.556;2023-03-02T05:06:43;99355.69;;;-2.19;78.86
73338;BME280;61575;49.908;35.556;2023-03-02T05:09:45;99350.53;;;-2.06;78.90
73338;BME280;61575;49.908;35.556;2023-03-02T05:12:47;99343.66;;;-2.09;78.54
73338;BME280;61575;49.908;35.556;2023-03-02T05:15:56;99354.00;;;-2.06;77.61
73338;BME280;61575;49.908;35.556;2023-03-02T05:19:03;99340.00;;;-1.92;77.50
73338;BME280;61575;49.908;35.556;2023-03-02T05:22:07;99345.63;;;-1.84;77.13
73338;BME280;61575;49.908;35.556;2023-03-02T05:25:10;99342.53;;;-1.91;76.32
73338;BME280;61575;49.908;35.556;2023-03-02T05:28:12;99344.66;;;-1.69;76.97
73338;BME280;61575;49.908;35.556;2023-03-02T05:31:20;99340.59;;;-1.60;75.84
73338;BME280;61575;49.908;35.556;2023-03-02T05:34:26;99347.25;;;-1.55;75.23
73338;BME280;61575;49.908;35.556;2023-03-02T05:37:31;99353.19;;;-1.51;75.30
73338;BME280;61575;49.908;35.556;2023-03-02T05:40:38;99357.69;;;-1.53;75.33
73338;BME280;61575;49.908;35.556;2023-03-02T05:43:40;99354.22;;;-1.54;75.55
73338;BME280;61575;49.908;35.556;2023-03-02T05:46:42;99370.75;;;-1.52;75.80
73338;BME280;61575;49.908;35.556;2023-03-02T05:49:44;99365.09;;;-1.46;75.52
73338;BME280;61575;49.908;35.556;2023-03-02T05:52:47;99374.09;;;-1.35;76.15
73338;BME280;61575;49.908;35.556;2023-03-02T05:55:49;99365.06;;;-1.31;76.19
73338;BME280;61575;49.908;35.556;2023-03-02T05:58:55;99376.06;;;-1.25;76.03
73338;BME280;61575;49.908;35.556;2023-03-02T06:01:57;99379.44;;;-1.23;75.94
73338;BME280;61575;49.908;35.556;2023-03-02T06:05:00;99393.19;;;-1.32;76.02
73338;BME280;61575;49.908;35.556;2023-03-02T06:08:02;99403.41;;;-1.13;75.78
73338;BME280;61575;49.908;35.556;2023-03-02T06:11:04;99400.22;;;-1.05;75.80
73338;BME280;61575;49.908;35.556;2023-03-02T06:14:06;99402.44;;;-1.12;75.86
73338;BME280;61575;49.908;35.556;2023-03-02T06:17:10;99402.81;;;-0.91;75.35
73338;BME280;61575;49.908;35.556;2023-03-02T06:20:13;99403.97;;;-0.95;75.16
73338;BME280;61575;49.908;35.556;2023-03-02T06:23:15;99400.63;;;-0.85;75.33
73338;BME280;61575;49.908;35.556;2023-03-02T06:26:17;99402.44;;;-0.72;75.11
73338;BME280;61575;49.908;35.556;2023-03-02T06:29:20;99393.19;;;-0.53;74.83
73338;BME280;61575;49.908;35.556;2023-03-02T06:32:23;99402.72;;;-0.37;74.48
73338;BME280;61575;49.908;35.556;2023-03-02T06:35:27;99402.28;;;-0.44;74.18
73338;BME280;61575;49.908;35.556;2023-03-02T06:38:30;99406.44;;;-0.27;74.18
73338;BME280;61575;49.908;35.556;2023-03-02T06:41:32;99408.53;;;-0.20;74.07
73338;BME280;61575;49.908;35.556;2023-03-02T06:44:35;99406.53;;;-0.16;73.80
73338;BME280;61575;49.908;35.556;2023-03-02T06:47:37;99411.09;;;-0.05;73.76
73338;BME280;61575;49.908;35.556;2023-03-02T06:50:39;99404.13;;;0.06;73.52
73338;BME280;61575;49.908;35.556;2023-03-02T06:53:41;99405.38;;;0.26;73.02
73338;BME280;61575;49.908;35.556;2023-03-02T06:56:43;99421.69;;;0.57;72.59
73338;BME280;61575;49.908;35.556;2023-03-02T06:59:44;99416.91;;;0.62;71.32
73338;BME280;61575;49.908;35.556;2023-03-02T07:02:46;99418.78;;;0.72;71.56
73338;BME280;61575;49.908;35.556;2023-03-02T07:05:50;99417.94;;;0.72;70.96
73338;BME280;61575;49.908;35.556;2023-03-02T07:08:52;99412.25;;;0.65;70.53
73338;BME280;61575;49.908;35.556;2023-03-02T07:11:57;99412.28;;;0.89;70.99
73338;BME280;61575;49.908;35.556;2023-03-02T07:14:59;99418.19;;;0.93;70.10
73338;BME280;61575;49.908;35.556;2023-03-02T07:18:04;99416.41;;;0.93;69.89
73338;BME280;61575;49.908;35.556;2023-03-02T07:21:06;99411.50;;;1.24;69.38
73338;BME280;61575;49.908;35.556;2023-03-02T07:24:10;99409.69;;;1.48;69.11
73338;BME280;61575;49.908;35.556;2023-03-02T07:27:14;99403.84;;;1.67;68.13
73338;BME280;61575;49.908;35.556;2023-03-02T07:30:16;99403.28;;;1.97;67.73
73338;BME280;61575;49.908;35.556;2023-03-02T07:33:21;99405.97;;;2.41;66.89
73338;BME280;61575;49.908;35.556;2023-03-02T07:36:23;99418.38;;;2.52;66.09
73338;BME280;61575;49.908;35.556;2023-03-02T07:39:26;99423.06;;;2.48;65.12
73338;BME280;61575;49.908;35.556;2023-03-02T07:42:28;99415.38;;;2.34;65.87
73338;BME280;61575;49.908;35.556;2023-03-02T07:45:32;99424.03;;;2.36;66.47
73338;BME280;61575;49.908;35.556;2023-03-02T07:48:34;99431.84;;;2.15;66.66
73338;BME280;61575;49.908;35.556;2023-03-02T07:51:36;99433.75;;;1.91;67.56
73338;BME280;61575;49.908;35.556;2023-03-02T07:54:38;99430.38;;;1.89;67.62
73338;BME280;61575;49.908;35.556;2023-03-02T07:57:40;99429.25;;;1.80;67.31
73338;BME280;61575;49.908;35.556;2023-03-02T08:01:01;99440.91;;;1.67;67.61
73338;BME280;61575;49.908;35.556;2023-03-02T08:04:04;99431.16;;;1.67;67.83
73338;BME280;61575;49.908;35.556;2023-03-02T08:07:05;99435.25;;;1.36;67.43
73338;BME280;61575;49.908;35.556;2023-03-02T08:10:10;99434.38;;;1.60;68.00
73338;BME280;61575;49.908;35.556;2023-03-02T08:13:12;99441.00;;;1.30;68.18
73338;BME280;61575;49.908;35.556;2023-03-02T08:16:15;99450.72;;;1.54;67.38
73338;BME280;61575;49.908;35.556;2023-03-02T08:19:19;99464.84;;;1.65;67.30
73338;BME280;61575;49.908;35.556;2023-03-02T08:22:23;99455.81;;;1.68;67.79
73338;BME280;61575;49.908;35.556;2023-03-02T08:25:25;99467.53;;;1.76;67.45
73338;BME280;61575;49.908;35.556;2023-03-02T08:28:27;99473.84;;;1.63;67.59
73338;BME280;61575;49.908;35.556;2023-03-02T08:31:29;99464.06;;;1.52;68.02
73338;BME280;61575;49.908;35.556;2023-03-02T08:34:32;99473.41;;;1.45;67.66
73338;BME280;61575;49.908;35.556;2023-03-02T08:37:34;99476.41;;;1.40;68.05
73338;BME280;61575;49.908;35.556;2023-03-02T08:40:37;99469.69;;;1.47;67.88
73338;BME280;61575;49.908;35.556;2023-03-02T08:43:42;99478.97;;;1.53;67.80
73338;BME280;61575;49.908;35.556;2023-03-02T08:46:44;99477.69;;;1.35;68.37
73338;BME280;61575;49.908;35.556;2023-03-02T08:49:46;99482.47;;;1.54;68.08
73338;BME280;61575;49.908;35.556;2023-03-02T08:52:48;99480.63;;;1.43;67.84
73338;BME280;61575;49.908;35.556;2023-03-02T08:55:51;99478.31;;;1.62;67.47
73338;BME280;61575;49.908;35.556;2023-03-02T08:58:58;99477.97;;;1.67;67.40
73338;BME280;61575;49.908;35.556;2023-03-02T09:02:04;99480.22;;;1.60;67.62
73338;BME280;61575;49.908;35.556;2023-03-02T09:05:10;99485.28;;;1.39;66.72
73338;BME280;61575;49.908;35.556;2023-03-02T09:08:13;99486.06;;;1.53;66.81
73338;BME280;61575;49.908;35.556;2023-03-02T09:11:15;99483.75;;;1.72;66.47
73338;BME280;61575;49.908;35.556;2023-03-02T09:14:17;99486.56;;;1.81;65.75
73338;BME280;61575;49.908;35.556;2023-03-02T09:17:18;99492.06;;;1.78;65.61
73338;BME280;61575;49.908;35.556;2023-03-02T09:20:20;99488.63;;;1.89;65.64
73338;BME280;61575;49.908;35.556;2023-03-02T09:23:24;99478.19;;;2.10;65.63
73338;BME280;61575;49.908;35.556;2023-03-02T09:26:28;99484.66;;;2.63;65.15
73338;BME280;61575;49.908;35.556;2023-03-02T09:29:30;99481.09;;;3.19;63.43
73338;BME280;61575;49.908;35.556;2023-03-02T09:32:32;99476.38;;;3.22;62.78
73338;BME280;61575;49.908;35.556;2023-03-02T09:35:37;99475.66;;;3.63;61.26
73338;BME280;61575;49.908;35.556;2023-03-02T09:38:39;99471.00;;;3.97;60.73
73338;BME280;61575;49.908;35.556;2023-03-02T09:48:56;99469.28;;;4.38;57.32
73338;BME280;61575;49.908;35.556;2023-03-02T09:55:27;99477.50;;;4.86;57.34
73338;BME280;61575;49.908;35.556;2023-03-02T09:58:34;99483.28;;;5.01;56.88
73338;BME280;61575;49.908;35.556;2023-03-02T10:01:42;99478.75;;;4.82;55.98
73338;BME280;61575;49.908;35.556;2023-03-02T10:04:50;99493.00;;;5.12;57.06
73338;BME280;61575;49.908;35.556;2023-03-02T10:07:54;99487.31;;;5.35;56.43
73338;BME280;61575;49.908;35.556;2023-03-02T10:14:38;99478.34;;;5.36;54.85
73338;BME280;61575;49.908;35.556;2023-03-02T10:24:39;99455.94;;;4.89;56.45
73338;BME280;61575;49.908;35.556;2023-03-02T10:27:44;99467.19;;;5.02;56.96
73338;BME280;61575;49.908;35.556;2023-03-02T10:31:06;99461.66;;;4.54;56.39
73338;BME280;61575;49.908;35.556;2023-03-02T10:34:11;99450.00;;;4.76;57.11
73338;BME280;61575;49.908;35.556;2023-03-02T10:37:17;99442.81;;;4.97;56.74
73338;BME280;61575;49.908;35.556;2023-03-02T10:40:44;99443.53;;;4.69;55.93
73338;BME280;61575;49.908;35.556;2023-03-02T10:43:51;99434.84;;;4.67;57.26
73338;BME280;61575;49.908;35.556;2023-03-02T10:46:59;99441.63;;;4.81;57.01
73338;BME280;61575;49.908;35.556;2023-03-02T10:50:01;99435.78;;;4.87;56.98
73338;BME280;61575;49.908;35.556;2023-03-02T10:53:06;99441.41;;;4.93;56.73
73338;BME280;61575;49.908;35.556;2023-03-02T10:56:18;99446.75;;;5.03;57.06
73338;BME280;61575;49.908;35.556;2023-03-02T11:02:36;99453.19;;;4.70;56.44
73338;BME280;61575;49.908;35.556;2023-03-02T11:05:38;99450.94;;;4.65;57.40
73338;BME280;61575;49.908;35.556;2023-03-02T11:08:42;99450.00;;;4.76;57.33
73338;BME280;61575;49.908;35.556;2023-03-02T11:11:54;99451.91;;;4.64;57.17
73338;BME280;61575;49.908;35.556;2023-03-02T11:18:32;99451.59;;;4.27;56.27
73338;BME280;61575;49.908;35.556;2023-03-02T11:22:13;99454.78;;;4.21;57.92
73338;BME280;61575;49.908;35.556;2023-03-02T11:25:28;99454.56;;;4.34;57.91
73338;BME280;61575;49.908;35.556;2023-03-02T11:28:40;99456.13;;;4.16;58.01
73338;BME280;61575;49.908;35.556;2023-03-02T11:34:51;99450.69;;;4.17;59.23
73338;BME280;61575;49.908;35.556;2023-03-02T11:38:03;99458.44;;;3.78;58.92
73338;BME280;61575;49.908;35.556;2023-03-02T11:41:28;99469.47;;;3.95;59.71
73338;BME280;61575;49.908;35.556;2023-03-02T11:44:30;99467.44;;;3.66;59.97
73338;BME280;61575;49.908;35.556;2023-03-02T11:47:33;99474.97;;;3.50;60.63
73338;BME280;61575;49.908;35.556;2023-03-02T11:51:10;99464.59;;;3.47;60.52
73338;BME280;61575;49.908;35.556;2023-03-02T11:57:42;99471.00;;;3.44;61.36
73338;BME280;61575;49.908;35.556;2023-03-02T12:00:50;99475.97;;;3.38;62.00
73338;BME280;61575;49.908;35.556;2023-03-02T12:03:53;99467.56;;;3.22;61.20
73338;BME280;61575;49.908;35.556;2023-03-02T12:07:23;99468.41;;;3.22;61.38
73338;BME280;61575;49.908;35.556;2023-03-02T12:14:02;99464.00;;;3.43;61.41
73338;BME280;61575;49.908;35.556;2023-03-02T12:23:23;99472.44;;;3.49;61.73
73338;BME280;61575;49.908;35.556;2023-03-02T12:26:33;99472.41;;;3.17;62.01
73338;BME280;61575;49.908;35.556;2023-03-02T12:29:47;99470.84;;;3.57;61.78
73338;BME280;61575;49.908;35.556;2023-03-02T12:36:11;99466.78;;;3.74;61.55
73338;BME280;61575;49.908;35.556;2023-03-02T12:39:36;99468.00;;;3.70;61.95
73338;BME280;61575;49.908;35.556;2023-03-02T12:46:26;99457.25;;;3.71;61.23
73338;BME280;61575;49.908;35.556;2023-03-02T12:49:47;99460.88;;;3.70;61.04
73338;BME280;61575;49.908;35.556;2023-03-02T12:52:55;99457.66;;;3.67;61.29
73338;BME280;61575;49.908;35.556;2023-03-02T12:55:58;99453.19;;;3.67;61.00
73338;BME280;61575;49.908;35.556;2023-03-02T12:59:00;99456.94;;;3.65;61.25
73338;BME280;61575;49.908;35.556;2023-03-02T13:02:22;99454.28;;;3.65;61.95
73338;BME280;61575;49.908;35.556;2023-03-02T13:05:28;99448.38;;;3.61;62.23
73338;BME280;61575;49.908;35.556;2023-03-02T13:08:31;99445.63;;;3.52;62.55
73338;BME280;61575;49.908;35.556;2023-03-02T13:11:35;99444.94;;;3.50;62.59
73338;BME280;61575;49.908;35.556;2023-03-02T13:14:39;99438.31;;;3.44;62.59
73338;BME280;61575;49.908;35.556;2023-03-02T13:17:43;99425.66;;;3.36;62.68
73338;BME280;61575;49.908;35.556;2023-03-02T13:20:45;99419.38;;;3.37;62.67
73338;BME280;61575;49.908;35.556;2023-03-02T13:23:48;99416.28;;;3.32;62.83
73338;BME280;61575;49.908;35.556;2023-03-02T13:27:03;99406.50;;;3.33;63.21
73338;BME280;61575;49.908;35.556;2023-03-02T13:30:23;99417.84;;;3.35;63.28
73338;BME280;61575;49.908;35.556;2023-03-02T13:33:29;99416.44;;;3.20;63.45
73338;BME280;61575;49.908;35.556;2023-03-02T13:36:36;99415.13;;;3.14;63.84
73338;BME280;61575;49.908;35.556;2023-03-02T13:39:39;99417.81;;;3.03;64.20
73338;BME280;61575;49.908;35.556;2023-03-02T13:42:41;99414.31;;;3.02;64.41
73338;BME280;61575;49.908;35.556;2023-03-02T13:45:56;99408.06;;;2.92;64.81
73338;BME280;61575;49.908;35.556;2023-03-02T13:49:05;99410.56;;;3.05;64.70
73338;BME280;61575;49.908;35.556;2023-03-02T13:52:28;99405.63;;;3.00;65.38
73338;BME280;61575;49.908;35.556;2023-03-02T13:55:30;99409.72;;;3.04;65.08
73338;BME280;61575;49.908;35.556;2023-03-02T13:58:37;99415.66;;;2.97;65.70
73338;BME280;61575;49.908;35.556;2023-03-02T14:01:40;99410.69;;;3.03;65.75
73338;BME280;61575;49.908;35.556;2023-03-02T14:04:42;99411.44;;;2.94;65.57
73338;BME280;61575;49.908;35.556;2023-03-02T14:07:44;99412.06;;;2.87;65.71
73338;BME280;61575;49.908;35.556;2023-03-02T14:10:50;99407.13;;;2.82;65.59
73338;BME280;61575;49.908;35.556;2023-03-02T14:13:53;99407.00;;;2.84;66.03
73338;BME280;61575;49.908;35.556;2023-03-02T14:16:55;99405.66;;;2.89;66.07
73338;BME280;61575;49.908;35.556;2023-03-02T14:19:57;99407.59;;;2.87;66.41
73338;BME280;61575;49.908;35.556;2023-03-02T14:22:59;99414.59;;;2.88;66.61
73338;BME280;61575;49.908;35.556;2023-03-02T14:29:24;99406.88;;;2.85;67.47
73338;BME280;61575;49.908;35.556;2023-03-02T14:32:27;99415.94;;;2.83;68.08
73338;BME280;61575;49.908;35.556;2023-03-02T14:35:29;99410.53;;;2.73;68.87
73338;BME280;61575;49.908;35.556;2023-03-02T14:38:31;99411.72;;;2.69;69.24
73338;BME280;61575;49.908;35.556;2023-03-02T14:41:33;99406.81;;;2.64;69.35
73338;BME280;61575;49.908;35.556;2023-03-02T14:44:54;99401.63;;;2.52;70.31
73338;BME280;61575;49.908;35.556;2023-03-02T14:47:55;99406.44;;;2.58;70.19
73338;BME280;61575;49.908;35.556;2023-03-02T14:50:58;99398.97;;;2.52;70.48
73338;BME280;61575;49.908;35.556;2023-03-02T14:54:04;99407.19;;;2.48;70.73
73338;BME280;61575;49.908;35.556;2023-03-02T14:57:20;99405.84;;;2.32;71.63
73338;BME280;61575;49.908;35.556;2023-03-02T15:00:23;99405.13;;;2.41;71.49
73338;BME280;61575;49.908;35.556;2023-03-02T15:03:26;99403.81;;;2.24;72.27
73338;BME280;61575;49.908;35.556;2023-03-02T15:06:30;99396.09;;;2.32;71.97
73338;BME280;61575;49.908;35.556;2023-03-02T15:09:33;99399.34;;;2.25;72.74
73338;BME280;61575;49.908;35.556;2023-03-02T15:12:35;99400.78;;;2.29;72.62
73338;BME280;61575;49.908;35.556;2023-03-02T15:15:39;99403.69;;;2.26;72.47
73338;BME280;61575;49.908;35.556;2023-03-02T15:18:41;99402.59;;;2.17;72.93
73338;BME280;61575;49.908;35.556;2023-03-02T15:21:43;99405.00;;;2.20;72.90
73338;BME280;61575;49.908;35.556;2023-03-02T15:24:47;99409.34;;;2.21;73.00
73338;BME280;61575;49.908;35.556;2023-03-02T15:27:49;99404.28;;;2.18;73.14
73338;BME280;61575;49.908;35.556;2023-03-02T15:30:51;99400.78;;;2.06;73.89
73338;BME280;61575;49.908;35.556;2023-03-02T15:33:54;99404.75;;;2.12;73.48
73338;BME280;61575;49.908;35.556;2023-03-02T15:36:56;99405.81;;;1.98;73.78
73338;BME280;61575;49.908;35.556;2023-03-02T15:39:58;99407.75;;;2.07;73.58
73338;BME280;61575;49.908;35.556;2023-03-02T15:43:01;99413.78;;;2.09;73.92
73338;BME280;61575;49.908;35.556;2023-03-02T15:46:07;99422.81;;;2.07;73.79
73338;BME280;61575;49.908;35.556;2023-03-02T15:49:12;99415.84;;;2.06;74.05
73338;BME280;61575;49.908;35.556;2023-03-02T15:52:14;99415.94;;;2.04;74.31
73338;BME280;61575;49.908;35.556;2023-03-02T15:55:17;99414.72;;;1.97;74.51
73338;BME280;61575;49.908;35.556;2023-03-02T15:58:19;99418.84;;;2.01;74.77
73338;BME280;61575;49.908;35.556;2023-03-02T16:01:22;99425.09;;;2.00;74.79
73338;BME280;61575;49.908;35.556;2023-03-02T16:04:25;99422.56;;;1.99;75.10
73338;BME280;61575;49.908;35.556;2023-03-02T16:07:27;99428.44;;;1.91;76.00
73338;BME280;61575;49.908;35.556;2023-03-02T16:10:30;99415.47;;;1.99;74.77
73338;BME280;61575;49.908;35.556;2023-03-02T16:13:33;99416.19;;;2.01;75.16
73338;BME280;61575;49.908;35.556;2023-03-02T16:16:35;99419.69;;;2.02;75.09
73338;BME280;61575;49.908;35.556;2023-03-02T16:19:37;99427.00;;;1.98;75.51
73338;BME280;61575;49.908;35.556;2023-03-02T16:22:39;99423.28;;;2.01;75.39
73338;BME280;61575;49.908;35.556;2023-03-02T16:25:42;99419.78;;;2.00;75.59
73338;BME280;61575;49.908;35.556;2023-03-02T16:28:44;99419.91;;;1.99;75.85
73338;BME280;61575;49.908;35.556;2023-03-02T16:31:47;99419.19;;;1.97;75.82
73338;BME280;61575;49.908;35.556;2023-03-02T16:34:52;99417.38;;;1.97;75.93
73338;BME280;61575;49.908;35.556;2023-03-02T16:37:57;99411.25;;;1.97;75.94
73338;BME280;61575;49.908;35.556;2023-03-02T16:40:59;99419.19;;;1.97;75.86
73338;BME280;61575;49.908;35.556;2023-03-02T16:44:02;99428.31;;;1.93;76.47
73338;BME280;61575;49.908;35.556;2023-03-02T16:47:04;99417.00;;;1.91;76.77
73338;BME280;61575;49.908;35.556;2023-03-02T16:50:07;99420.63;;;1.90;76.70
73338;BME280;61575;49.908;35.556;2023-03-02T16:53:09;99421.34;;;1.92;76.73
73338;BME280;61575;49.908;35.556;2023-03-02T16:56:17;99427.09;;;1.86;76.84
73338;BME280;61575;49.908;35.556;2023-03-02T16:59:21;99431.94;;;1.92;76.67
73338;BME280;61575;49.908;35.556;2023-03-02T17:02:23;99429.28;;;1.92;76.59
73338;BME280;61575;49.908;35.556;2023-03-02T17:05:25;99432.06;;;1.90;77.02
73338;BME280;61575;49.908;35.556;2023-03-02T17:08:27;99429.63;;;1.87;76.92
73338;BME280;61575;49.908;35.556;2023-03-02T17:11:29;99429.97;;;1.71;78.39
73338;BME280;61575;49.908;35.556;2023-03-02T17:14:32;99430.72;;;1.85;77.44